Time;durP1;ratioP1;P1;durP2;ratioP2;P2;SDS_P1;SDS_P2;PMS_P1;PMS_P2;Temp;Humidity;BMP_temperature;BMP_pressure;BME280_temperature;BME280_humidity;BME280_pressure;Samples;Min_cycle;Max_cycle;Signal;HPM_P1;HPM_P2
2022/01/09 00:00:30;;;;;;;53.77;23.10;;;;;;;5.42;85.45;94035.50;5155344;27;20176;-81
2022/01/09 00:02:56;;;;;;;51.37;24.20;;;;;;;5.29;85.70;94029.25;5155014;27;20209;-83
2022/01/09 00:05:22;;;;;;;57.50;24.07;;;;;;;5.38;85.37;94042.09;5152965;27;20287;-83
2022/01/09 00:07:47;;;;;;;56.03;26.27;;;;;;;5.38;85.37;94039.50;5138223;27;20631;-83
2022/01/09 00:10:13;;;;;;;56.27;25.63;;;;;;;5.32;85.02;94041.91;5154980;27;20182;-83
2022/01/09 00:12:39;;;;;;;49.80;22.93;;;;;;;5.24;85.54;94031.66;5154770;27;20171;-83
2022/01/09 00:15:05;;;;;;;59.50;25.70;;;;;;;5.26;84.94;94034.88;5136419;27;20656;-83
2022/01/09 00:17:31;;;;;;;56.87;25.37;;;;;;;5.12;85.17;94011.56;5154696;27;20535;-83
2022/01/09 00:19:56;;;;;;;53.20;24.93;;;;;;;5.04;85.15;94001.31;5135714;27;20178;-83
2022/01/09 00:22:33;;;;;;;52.70;24.70;;;;;;;5.10;85.35;94005.75;5143095;27;20203;-83
2022/01/09 00:24:58;;;;;;;58.33;26.57;;;;;;;5.02;85.70;93998.09;5133939;27;20239;-83
2022/01/09 00:27:24;;;;;;;56.87;26.87;;;;;;;5.35;85.53;94048.53;5153916;27;20174;-83
2022/01/09 00:29:49;;;;;;;66.03;30.73;;;;;;;5.23;85.64;94024.81;5154825;27;20164;-83
2022/01/09 00:32:15;;;;;;;83.23;34.07;;;;;;;5.30;85.43;94024.81;5149987;27;20210;-83
2022/01/09 00:34:40;;;;;;;63.47;29.27;;;;;;;5.08;86.25;93992.91;5154825;27;20164;-84
2022/01/09 00:37:05;;;;;;;66.13;30.57;;;;;;;5.32;86.58;94034.06;5154407;27;20345;-84
2022/01/09 00:39:31;;;;;;;64.70;32.50;;;;;;;5.24;86.48;94013.41;5149264;27;20196;-83
2022/01/09 00:41:56;;;;;;;69.83;31.17;;;;;;;5.30;86.63;94017.81;5137345;27;20176;-83
2022/01/09 00:44:22;;;;;;;76.20;32.97;;;;;;;5.35;86.01;94014.63;5153765;27;20187;-83
2022/01/09 00:46:47;;;;;;;74.47;33.43;;;;;;;5.27;86.46;94004.38;5140806;27;20254;-83
2022/01/09 00:49:12;;;;;;;69.20;32.67;;;;;;;5.15;86.74;93990.31;5139235;27;20163;-83
2022/01/09 00:51:38;;;;;;;76.50;31.30;;;;;;;5.23;87.12;93993.53;5152607;27;20183;-83
2022/01/09 00:54:03;;;;;;;67.13;30.93;;;;;;;5.27;86.66;93993.94;5135470;27;20179;-83
2022/01/09 00:56:29;;;;;;;73.50;33.27;;;;;;;5.25;86.69;93991.53;5153774;27;20178;-83
2022/01/09 00:58:57;;;;;;;79.33;35.00;;;;;;;5.27;86.19;93983.50;5133832;27;20710;-83
2022/01/09 01:01:22;;;;;;;68.77;32.37;;;;;;;5.54;86.12;94023.44;5134756;27;20175;-83
2022/01/09 01:03:48;;;;;;;81.87;34.27;;;;;;;5.26;86.30;93982.69;5153731;27;20637;-83
2022/01/09 01:06:13;;;;;;;78.23;34.77;;;;;;;5.22;86.54;93971.03;5153696;27;20171;-83
2022/01/09 01:08:39;;;;;;;64.73;28.33;;;;;;;5.32;86.61;93981.91;5148404;27;20658;-83
2022/01/09 01:11:04;;;;;;;55.20;23.27;;;;;;;5.26;86.43;93967.06;5154146;27;20618;-83
2022/01/09 01:13:30;;;;;;;62.53;27.77;;;;;;;5.40;86.75;93983.50;5154066;27;20175;-83
2022/01/09 01:15:57;;;;;;;56.10;25.90;;;;;;;5.38;86.18;93972.44;5134414;27;20183;-83
2022/01/09 01:18:22;;;;;;;70.53;27.40;;;;;;;5.44;86.41;93965.66;5135146;27;20247;-83
2022/01/09 01:20:47;;;;;;;61.43;25.87;;;;;;;5.56;86.16;93979.69;5156232;27;20167;-83
2022/01/09 01:23:13;;;;;;;51.87;24.87;;;;;;;5.52;85.80;93973.28;5139174;27;20657;-83
2022/01/09 01:25:40;;;;;;;56.67;25.37;;;;;;;5.29;86.37;93937.13;5135378;27;20176;-83
2022/01/09 01:28:05;;;;;;;61.43;28.30;;;;;;;5.72;86.67;93999.34;5135464;27;20175;-83
2022/01/09 01:30:31;;;;;;;56.90;26.60;;;;;;;5.72;86.27;94001.94;5153673;27;20211;-82
2022/01/09 01:32:56;;;;;;;55.70;24.60;;;;;;;5.35;86.18;93938.16;5134197;27;20179;-83
2022/01/09 01:35:22;;;;;;;59.23;26.60;;;;;;;5.47;86.52;93967.84;5152258;27;20180;-83
2022/01/09 01:37:47;;;;;;;44.47;20.43;;;;;;;5.46;86.79;93953.19;5152200;27;20286;-81
2022/01/09 01:40:16;;;;;;;42.43;20.50;;;;;;;5.41;86.35;93958.22;5153044;27;20171;-83
2022/01/09 01:42:41;;;;;;;54.80;23.23;;;;;;;5.45;86.51;93960.19;5153490;27;20167;-83
2022/01/09 01:45:08;;;;;;;47.03;21.87;;;;;;;5.44;86.96;93958.63;5153077;27;20187;-83
2022/01/09 01:47:34;;;;;;;53.13;22.60;;;;;;;5.37;87.08;93929.09;5153609;27;20180;-83
2022/01/09 01:49:59;;;;;;;48.87;22.27;;;;;;;5.71;86.50;93971.66;5134994;27;20171;-83
2022/01/09 01:52:31;;;;;;;50.40;21.67;;;;;;;5.81;86.57;93979.84;5153423;27;20172;-83
2022/01/09 01:54:56;;;;;;;46.90;23.13;;;;;;;5.51;86.27;93930.72;5144861;27;20160;-83
2022/01/09 01:57:22;;;;;;;43.00;21.13;;;;;;;5.45;86.47;93915.84;5134403;27;20191;-83
2022/01/09 01:59:47;;;;;;;39.00;19.23;;;;;;;5.63;86.14;93936.09;5153423;27;20168;-83
2022/01/09 02:02:13;;;;;;;40.07;19.53;;;;;;;5.81;86.20;93961.56;5134922;27;20686;-83
2022/01/09 02:04:38;;;;;;;37.50;18.47;;;;;;;5.66;86.30;93939.13;5153626;27;20622;-83
2022/01/09 02:07:04;;;;;;;42.10;20.97;;;;;;;5.68;86.44;93933.69;5153579;27;20170;-82
2022/01/09 02:09:30;;;;;;;45.60;22.23;;;;;;;5.78;86.01;93943.72;5134826;27;20567;-83
2022/01/09 02:11:57;;;;;;;41.37;20.47;;;;;;;5.56;86.71;93915.22;5153183;27;20251;-83
2022/01/09 02:14:22;;;;;;;36.90;16.77;;;;;;;5.50;86.35;93910.03;5152757;27;20183;-83
2022/01/09 02:16:50;;;;;;;38.33;17.20;;;;;;;5.76;86.40;93927.44;5134577;27;20551;-82
2022/01/09 02:19:16;;;;;;;40.20;19.30;;;;;;;5.63;86.34;93913.41;5152825;27;20243;-83
2022/01/09 02:21:47;;;;;;;26.93;15.93;;;;;;;5.38;86.49;93875.91;5152752;27;20543;-85
2022/01/09 02:24:15;;;;;;;42.40;18.17;;;;;;;5.53;86.40;93930.50;5134707;27;20167;-81
2022/01/09 02:26:41;;;;;;;39.87;18.93;;;;;;;5.44;86.89;93914.25;5153749;27;20584;-81
2022/01/09 02:29:07;;;;;;;29.47;15.93;;;;;;;5.43;86.52;93924.91;5157047;27;20300;-82
2022/01/09 02:31:36;;;;;;;29.73;15.03;;;;;;;5.41;86.92;93916.47;5157058;27;20612;-82
2022/01/09 02:34:02;;;;;;;34.30;16.87;;;;;;;5.28;86.68;93904.22;5138541;27;20171;-82
2022/01/09 02:36:27;;;;;;;33.23;16.43;;;;;;;5.13;86.57;93882.75;5157028;27;20293;-82
2022/01/09 02:38:53;;;;;;;29.07;16.13;;;;;;;5.26;86.75;93899.22;5156876;27;20574;-82
2022/01/09 02:41:18;;;;;;;31.60;16.00;;;;;;;5.13;86.46;93880.16;5157313;27;20160;-81
2022/01/09 02:43:44;;;;;;;31.57;16.23;;;;;;;5.15;86.36;93892.00;5138274;27;20166;-81
2022/01/09 02:46:45;;;;;;;33.10;16.23;;;;;;;5.24;86.80;93903.84;5138217;27;20184;-81
2022/01/09 02:48:57;;;;;;;34.33;17.43;;;;;;;5.29;86.50;93906.63;5140232;27;20187;-82
2022/01/09 02:51:24;;;;;;;46.40;20.93;;;;;;;5.18;86.42;93898.63;5138181;27;20688;-83
2022/01/09 02:53:56;;;;;;;41.33;19.70;;;;;;;4.92;86.81;93860.31;5156729;27;20225;-83
2022/01/09 02:56:22;;;;;;;38.20;18.27;;;;;;;5.10;86.74;93896.22;5137760;27;20552;-83
2022/01/09 02:58:47;;;;;;;46.77;21.37;;;;;;;4.73;87.29;93846.28;5137854;27;20191;-83
2022/01/09 03:01:12;;;;;;;44.33;19.87;;;;;;;4.78;87.13;93849.06;5137913;27;20175;-83
2022/01/09 03:03:39;;;;;;;40.30;20.50;;;;;;;4.71;86.90;93858.69;5156358;27;20646;-83
2022/01/09 03:06:04;;;;;;;48.23;22.10;;;;;;;4.75;86.83;93859.91;5156824;27;20224;-83
2022/01/09 03:08:30;;;;;;;44.63;20.73;;;;;;;4.96;87.27;93881.56;5156489;27;20246;-83
2022/01/09 03:10:55;;;;;;;44.47;21.17;;;;;;;4.91;86.88;93879.56;5156540;27;20152;-83
2022/01/09 03:13:21;;;;;;;49.60;23.00;;;;;;;4.88;87.30;93874.75;5156988;27;20148;-83
2022/01/09 03:15:47;;;;;;;47.70;23.10;;;;;;;4.91;86.98;93867.34;5137850;27;20212;-83
2022/01/09 03:18:13;;;;;;;44.03;21.97;;;;;;;4.85;87.36;93859.50;5156293;27;20187;-83
2022/01/09 03:20:40;;;;;;;47.07;22.83;;;;;;;4.84;87.56;93869.09;5137659;27;20649;-84
2022/01/09 03:23:05;;;;;;;50.93;21.33;;;;;;;4.70;87.68;93846.66;5156178;27;20156;-83
2022/01/09 03:25:31;;;;;;;44.23;20.90;;;;;;;4.77;87.98;93865.69;5156350;27;20168;-84
2022/01/09 03:27:58;;;;;;;41.10;21.07;;;;;;;4.57;88.21;93854.47;5156139;27;20203;-83
2022/01/09 03:30:24;;;;;;;43.13;20.47;;;;;;;4.29;88.71;93812.16;5137034;27;20178;-83
2022/01/09 03:32:51;;;;;;;35.70;18.37;;;;;;;4.27;89.11;93827.16;5155632;27;20266;-83
2022/01/09 03:35:19;;;;;;;40.10;20.40;;;;;;;4.54;89.75;93878.31;5155848;27;20171;-83
2022/01/09 03:37:46;;;;;;;44.40;22.53;;;;;;;4.37;89.81;93836.19;5142874;27;20231;-82
2022/01/09 03:40:15;;;;;;;47.60;23.07;;;;;;;4.42;89.95;93833.00;5135042;27;20195;-83
2022/01/09 03:42:47;;;;;;;43.63;21.20;;;;;;;4.63;89.55;93853.66;5135259;27;20567;-82
2022/01/09 03:45:13;;;;;;;53.40;23.73;;;;;;;4.63;89.74;93865.91;5156067;27;20190;-83
2022/01/09 03:47:39;;;;;;;50.20;22.00;;;;;;;4.69;89.82;93868.50;5155911;27;20164;-83
2022/01/09 03:50:08;;;;;;;45.93;21.43;;;;;;;4.70;89.62;93862.28;5155690;27;20194;-83
2022/01/09 03:52:37;;;;;;;44.80;20.47;;;;;;;4.52;89.34;93838.63;5155434;27;20629;-83
2022/01/09 03:55:03;;;;;;;47.83;20.40;;;;;;;4.60;89.29;93835.00;5137678;27;20259;-83
2022/01/09 03:57:28;;;;;;;52.87;23.00;;;;;;;4.48;89.35;93817.38;5155399;27;20552;-83
2022/01/09 03:59:55;;;;;;;48.93;21.50;;;;;;;4.64;89.00;93834.44;5155758;27;20171;-83
2022/01/09 04:02:20;;;;;;;51.80;21.77;;;;;;;4.44;88.65;93791.91;5155504;27;20614;-83
2022/01/09 04:04:46;;;;;;;43.17;22.20;;;;;;;4.69;88.79;93839.84;5155355;27;20190;-83
2022/01/09 04:07:11;;;;;;;49.53;23.27;;;;;;;4.65;88.88;93830.81;5155860;27;20171;-83
2022/01/09 04:09:39;;;;;;;48.20;23.43;;;;;;;4.70;88.88;93845.84;5155426;27;20155;-83
2022/01/09 04:12:15;;;;;;;47.10;22.50;;;;;;;4.60;88.80;93830.59;5155464;27;20163;-83
2022/01/09 04:14:42;;;;;;;51.47;22.73;;;;;;;4.51;88.75;93803.94;5136592;27;20174;-83
2022/01/09 04:17:13;;;;;;;46.73;22.97;;;;;;;4.67;89.22;93841.84;5155225;27;20164;-83
2022/01/09 04:19:39;;;;;;;48.20;22.60;;;;;;;4.41;89.65;93798.31;5136444;27;20195;-83
2022/01/09 04:22:04;;;;;;;49.00;23.27;;;;;;;4.58;89.16;93827.41;5136525;27;20167;-81
2022/01/09 04:24:29;;;;;;;42.23;21.23;;;;;;;4.61;89.12;93831.41;5155022;27;20179;-83
2022/01/09 04:26:55;;;;;;;46.23;20.30;;;;;;;4.47;89.51;93821.00;5155476;27;20234;-83
2022/01/09 04:29:20;;;;;;;42.13;19.73;;;;;;;4.43;88.89;93808.53;5154916;27;20164;-83
2022/01/09 04:31:46;;;;;;;37.93;17.03;;;;;;;4.65;88.95;93838.66;5136158;27;20852;-83
2022/01/09 04:34:11;;;;;;;31.97;16.10;;;;;;;4.38;89.12;93797.94;5154883;27;20624;-82
2022/01/09 04:36:37;;;;;;;35.70;16.47;;;;;;;4.33;89.15;93792.50;5135408;27;20243;-83
2022/01/09 04:39:02;;;;;;;33.93;18.67;;;;;;;4.55;89.16;93830.41;5151997;27;20195;-83
2022/01/09 04:41:28;;;;;;;44.43;19.73;;;;;;;4.28;89.02;93789.69;5152169;27;20179;-82
2022/01/09 04:43:53;;;;;;;33.57;18.13;;;;;;;4.31;88.97;93797.13;5152524;27;20661;-81
2022/01/09 04:46:26;;;;;;;33.90;17.80;;;;;;;4.29;89.11;93799.13;5154105;27;20212;-83
2022/01/09 04:48:54;;;;;;;40.07;18.70;;;;;;;4.45;89.28;93827.41;5148637;27;20168;-83
2022/01/09 04:51:22;;;;;;;38.90;18.27;;;;;;;4.17;88.97;93781.47;5154101;27;20164;-84
2022/01/09 04:53:48;;;;;;;44.90;23.63;;;;;;;4.37;89.06;93814.56;5135395;27;20565;-81
2022/01/09 04:56:16;;;;;;;45.13;21.47;;;;;;;4.34;89.17;93807.94;5154346;27;20167;-82
2022/01/09 04:58:42;;;;;;;49.67;24.90;;;;;;;4.36;89.00;93805.13;5135807;27;20220;-81
2022/01/09 05:01:07;;;;;;;47.57;24.30;;;;;;;4.13;89.10;93766.47;5154336;27;20156;-81
2022/01/09 05:03:33;;;;;;;48.30;24.53;;;;;;;4.68;89.55;93850.47;5154593;27;20170;-81
2022/01/09 05:05:58;;;;;;;63.70;29.20;;;;;;;4.46;89.42;93821.19;5154312;27;20156;-81
2022/01/09 05:08:24;;;;;;;57.37;27.57;;;;;;;4.58;89.64;93830.03;5154154;27;20149;-82
2022/01/09 05:10:49;;;;;;;68.37;33.07;;;;;;;4.54;89.56;93826.19;5154082;27;20227;-82
2022/01/09 05:13:14;;;;;;;78.10;35.70;;;;;;;4.70;89.68;93835.44;5154356;27;20238;-84
2022/01/09 05:15:40;;;;;;;121.00;48.13;;;;;;;4.62;89.51;93806.97;5154123;27;20174;-82
2022/01/09 05:18:12;;;;;;;97.20;43.33;;;;;;;4.61;90.12;93819.19;5135421;27;20535;-82
2022/01/09 05:20:38;;;;;;;56.33;26.70;;;;;;;4.85;90.21;93843.84;5154106;27;20200;-82
2022/01/09 05:23:03;;;;;;;43.00;22.10;;;;;;;4.76;90.36;93822.38;5135399;27;20601;-82
2022/01/09 05:25:29;;;;;;;46.60;23.57;;;;;;;4.93;90.50;93838.44;5135564;27;20634;-82
2022/01/09 05:27:54;;;;;;;45.83;23.43;;;;;;;4.70;90.90;93797.13;5153934;27;20155;-82
2022/01/09 05:30:21;;;;;;;38.83;20.60;;;;;;;4.86;90.49;93798.53;5135796;27;20203;-82
2022/01/09 05:32:46;;;;;;;36.40;20.00;;;;;;;5.04;90.66;93822.19;5135111;27;20219;-82
2022/01/09 05:35:12;;;;;;;44.53;23.60;;;;;;;4.98;90.12;93796.13;5135150;27;20726;-82
2022/01/09 05:37:38;;;;;;;42.63;21.90;;;;;;;5.15;89.97;93818.16;5135117;27;20160;-84
2022/01/09 05:40:04;;;;;;;48.67;22.83;;;;;;;5.26;90.13;93830.59;5135239;27;20175;-81
2022/01/09 05:42:29;;;;;;;45.07;22.33;;;;;;;4.97;89.46;93773.66;5153767;27;21870;-82
2022/01/09 05:44:54;;;;;;;40.33;22.03;;;;;;;5.25;89.64;93829.00;5152381;27;20179;-82
2022/01/09 05:47:20;;;;;;;43.57;21.37;;;;;;;5.05;89.29;93778.66;5153522;27;20171;-82
2022/01/09 05:49:45;;;;;;;40.27;20.77;;;;;;;5.00;88.59;93783.69;5134927;27;20163;-82
2022/01/09 05:52:11;;;;;;;42.43;21.50;;;;;;;5.32;88.92;93820.13;5154085;27;20168;-82
2022/01/09 05:54:36;;;;;;;36.60;20.03;;;;;;;5.01;88.67;93772.25;5153787;27;20155;-82
2022/01/09 05:57:02;;;;;;;35.70;17.73;;;;;;;5.01;88.65;93769.66;5154053;27;20156;-82
2022/01/09 05:59:27;;;;;;;38.50;19.80;;;;;;;4.85;89.17;93761.22;5134123;27;20195;-82
2022/01/09 06:01:55;;;;;;;31.97;17.17;;;;;;;4.88;89.22;93779.09;5135473;27;20172;-82
2022/01/09 06:04:20;;;;;;;34.03;16.47;;;;;;;5.16;89.23;93825.78;5157768;27;20167;-82
2022/01/09 06:06:46;;;;;;;30.47;16.10;;;;;;;4.81;89.83;93778.28;5157433;27;20739;-82
2022/01/09 06:09:14;;;;;;;35.93;17.07;;;;;;;5.05;89.92;93818.56;5139152;27;20246;-82
2022/01/09 06:11:39;;;;;;;31.50;17.27;;;;;;;5.08;90.10;93822.59;5157697;27;20185;-82
2022/01/09 06:14:04;;;;;;;27.90;15.53;;;;;;;5.07;90.52;93815.75;5158032;27;20622;-82
2022/01/09 06:16:30;;;;;;;29.53;15.73;;;;;;;4.96;90.07;93788.50;5158247;27;20187;-82
2022/01/09 06:18:55;;;;;;;27.67;14.83;;;;;;;5.13;90.14;93800.09;5139278;27;20629;-82
2022/01/09 06:21:21;;;;;;;27.30;14.97;;;;;;;5.15;90.41;93790.28;5158644;27;20156;-82
2022/01/09 06:23:46;;;;;;;30.93;15.83;;;;;;;5.39;89.82;93804.47;5158724;27;20250;-82
2022/01/09 06:26:12;;;;;;;32.17;17.40;;;;;;;5.48;89.68;93805.84;5158590;27;20196;-82
2022/01/09 06:28:39;;;;;;;30.07;16.07;;;;;;;5.60;88.86;93819.06;5156665;27;20188;-82
2022/01/09 06:31:04;;;;;;;28.90;16.03;;;;;;;5.32;88.62;93754.91;5156612;27;20176;-83
2022/01/09 06:33:32;;;;;;;35.87;18.17;;;;;;;5.71;88.29;93796.75;5156434;27;20660;-82
2022/01/09 06:35:57;;;;;;;32.17;17.77;;;;;;;5.65;87.63;93783.50;5156772;27;20176;-82
2022/01/09 06:38:23;;;;;;;39.23;19.13;;;;;;;5.66;87.29;93777.28;5138307;27;20188;-82
2022/01/09 06:40:48;;;;;;;36.37;17.53;;;;;;;5.82;87.46;93776.00;5138478;27;20634;-83
2022/01/09 06:43:13;;;;;;;36.77;18.50;;;;;;;6.10;87.42;93759.19;5138203;27;20183;-82
2022/01/09 06:45:39;;;;;;;46.27;23.90;;;;;;;6.66;85.76;93751.38;5157252;27;20160;-82
2022/01/09 06:48:04;;;;;;;99.30;42.63;;;;;;;7.66;82.63;93791.25;5156826;27;20197;-82
2022/01/09 06:50:30;;;;;;;68.10;31.10;;;;;;;8.37;79.29;93801.06;5138207;27;20175;-83
2022/01/09 06:52:56;;;;;;;52.07;25.77;;;;;;;8.54;76.22;93762.69;5137816;27;20315;-83
2022/01/09 06:55:22;;;;;;;24.57;13.33;;;;;;;9.08;75.01;93767.63;5156161;27;20171;-83
2022/01/09 06:57:50;;;;;;;19.97;10.57;;;;;;;9.34;72.15;93786.59;5155851;27;20176;-84
2022/01/09 07:00:17;;;;;;;20.47;10.17;;;;;;;9.05;71.74;93780.44;5156102;27;20220;-83
2022/01/09 07:02:43;;;;;;;17.83;10.30;;;;;;;8.41;72.17;93721.72;5156131;27;20195;-83
2022/01/09 07:05:09;;;;;;;18.40;9.30;;;;;;;8.85;73.70;93811.44;5137574;27;20171;-82
2022/01/09 07:07:36;;;;;;;18.37;9.90;;;;;;;8.78;74.34;93810.75;5156576;27;20179;-83
2022/01/09 07:10:02;;;;;;;16.00;9.83;;;;;;;8.39;74.23;93770.94;5156641;27;20156;-83
2022/01/09 07:12:28;;;;;;;17.67;9.43;;;;;;;8.51;74.43;93784.91;5156437;27;20167;-83
2022/01/09 07:14:53;;;;;;;17.03;9.03;;;;;;;8.87;75.01;93755.09;5136522;27;20174;-85
2022/01/09 07:17:19;;;;;;;19.17;9.47;;;;;;;10.03;71.82;93809.31;5137685;27;20182;-81
2022/01/09 07:19:44;;;;;;;18.60;10.50;;;;;;;10.43;69.15;93776.97;5156305;27;20193;-81
2022/01/09 07:22:09;;;;;;;19.27;9.53;;;;;;;11.17;67.09;93819.78;5156168;27;20167;-81
2022/01/09 07:24:35;;;;;;;16.50;7.93;;;;;;;11.89;65.00;93843.53;5156403;27;20618;-81
2022/01/09 07:27:00;;;;;;;20.17;8.70;;;;;;;12.26;63.05;93849.03;5136225;27;20188;-81
2022/01/09 07:29:26;;;;;;;17.43;8.87;;;;;;;12.02;61.68;93811.53;5155650;27;20178;-81
2022/01/09 07:31:54;;;;;;;11.30;7.03;;;;;;;11.87;62.26;93830.59;5155769;27;20168;-83
2022/01/09 07:34:20;;;;;;;16.43;7.93;;;;;;;11.42;63.16;93833.34;5155853;27;20168;-81
2022/01/09 07:36:46;;;;;;;21.23;10.37;;;;;;;10.93;64.93;93827.03;5156332;27;20163;-81
2022/01/09 07:39:12;;;;;;;17.90;8.93;;;;;;;10.66;65.31;93829.47;5137337;27;20588;-80
2022/01/09 07:41:38;;;;;;;13.30;8.43;;;;;;;10.36;66.11;93828.91;5155985;27;20168;-81
2022/01/09 07:44:03;;;;;;;12.17;7.67;;;;;;;9.79;67.20;93776.22;5156236;27;20544;-84
2022/01/09 07:46:31;;;;;;;13.07;7.37;;;;;;;9.69;67.37;93789.97;5136922;27;20254;-84
2022/01/09 07:48:58;;;;;;;12.67;8.03;;;;;;;9.44;67.73;93790.22;5154913;27;20183;-83
2022/01/09 07:51:25;;;;;;;12.90;6.87;;;;;;;8.90;68.54;93733.66;5155311;27;20172;-83
2022/01/09 07:53:51;;;;;;;10.37;5.40;;;;;;;9.54;68.44;93823.78;5155154;27;20191;-84
2022/01/09 07:56:19;;;;;;;11.13;5.80;;;;;;;9.38;67.79;93800.84;5136966;27;20262;-83
2022/01/09 07:58:45;;;;;;;12.63;6.90;;;;;;;9.34;68.48;93802.34;5136772;27;20662;-84
2022/01/09 08:01:10;;;;;;;11.13;7.47;;;;;;;8.78;68.91;93732.84;5155695;27;20230;-86
2022/01/09 08:03:36;;;;;;;8.50;5.07;;;;;;;9.08;69.82;93790.47;5155839;27;20266;-86
2022/01/09 08:06:02;;;;;;;8.30;4.23;;;;;;;9.26;68.40;93792.97;5155748;27;20168;-86
2022/01/09 08:08:27;;;;;;;9.03;4.60;;;;;;;9.79;67.30;93766.53;5136845;27;20263;-86
2022/01/09 08:10:55;;;;;;;7.73;4.67;;;;;;;10.64;63.17;93752.56;5137300;27;20206;-86
2022/01/09 08:13:20;;;;;;;8.47;4.63;;;;;;;10.42;63.83;93775.34;5137953;27;20163;-83
2022/01/09 08:15:46;;;;;;;6.47;3.50;;;;;;;10.28;62.59;93721.47;5136469;27;20224;-83
2022/01/09 08:18:12;;;;;;;5.30;3.57;;;;;;;10.29;62.51;93754.63;5136610;27;20203;-82
2022/01/09 08:20:37;;;;;;;4.70;3.43;;;;;;;9.77;66.11;93757.28;5136414;27;20172;-81
2022/01/09 08:23:03;;;;;;;5.03;3.70;;;;;;;9.80;66.27;93783.09;5155127;27;20735;-82
2022/01/09 08:25:28;;;;;;;7.97;4.50;;;;;;;9.02;66.45;93718.69;5135957;27;20175;-80
2022/01/09 08:27:55;;;;;;;5.53;3.57;;;;;;;8.70;68.00;93694.63;5154678;27;20303;-80
2022/01/09 08:30:22;;;;;;;5.30;3.60;;;;;;;8.69;69.04;93755.19;5152033;27;20255;-80
2022/01/09 08:32:48;;;;;;;6.23;3.70;;;;;;;8.15;70.26;93746.47;5154270;27;20215;-80
2022/01/09 08:35:15;;;;;;;5.40;4.00;;;;;;;8.03;71.49;93740.41;5135512;27;20232;-84
2022/01/09 08:37:42;;;;;;;4.00;2.90;;;;;;;7.62;72.03;93698.41;5154344;27;20164;-83
2022/01/09 08:40:10;;;;;;;6.00;3.87;;;;;;;7.58;73.54;93746.00;5135918;27;20184;-83
2022/01/09 08:42:39;;;;;;;8.10;4.23;;;;;;;7.53;73.96;93724.09;5136018;27;20220;-83
2022/01/09 08:45:05;;;;;;;6.43;4.23;;;;;;;7.66;74.75;93744.09;5135199;27;20180;-83
2022/01/09 08:47:30;;;;;;;5.33;3.73;;;;;;;7.90;75.20;93743.19;5136173;27;20183;-81
2022/01/09 08:49:57;;;;;;;8.23;4.00;;;;;;;8.24;73.11;93771.34;5154756;27;20156;-80
2022/01/09 08:52:24;;;;;;;5.93;3.87;;;;;;;8.20;72.90;93772.03;5153550;27;20246;-81
2022/01/09 08:54:51;;;;;;;5.67;4.13;;;;;;;8.04;73.47;93757.72;5147668;27;20238;-81
2022/01/09 08:57:20;;;;;;;6.50;3.87;;;;;;;7.74;73.91;93730.69;5154370;27;20176;-84
2022/01/09 08:59:45;;;;;;;5.70;3.60;;;;;;;7.60;74.97;93753.66;5134668;27;20287;-81
2022/01/09 09:02:13;;;;;;;6.57;4.30;;;;;;;7.54;75.69;93725.69;5153743;27;20262;-79
2022/01/09 09:04:39;;;;;;;6.13;3.87;;;;;;;7.66;75.68;93710.84;5151729;27;20243;-85
2022/01/09 09:07:07;;;;;;;5.83;3.63;;;;;;;7.93;74.24;93711.31;5154510;27;20270;-82
2022/01/09 09:09:38;;;;;;;9.33;4.13;;;;;;;8.06;73.44;93721.59;5137752;27;20183;-84
2022/01/09 09:12:13;;;;;;;6.40;4.20;;;;;;;7.96;73.41;93627.00;5134926;27;20175;-82
2022/01/09 09:14:38;;;;;;;6.13;3.77;;;;;;;9.14;73.30;93720.50;5152848;27;20190;-86
2022/01/09 09:17:06;;;;;;;7.00;3.87;;;;;;;9.73;70.06;93714.91;5153318;27;20588;-83
2022/01/09 09:19:35;;;;;;;6.37;4.30;;;;;;;10.10;67.58;93719.81;5135201;27;20251;-87
2022/01/09 09:22:00;;;;;;;6.50;4.33;;;;;;;10.23;67.55;93713.47;5154248;27;20721;-83
2022/01/09 09:24:25;;;;;;;7.80;4.23;;;;;;;10.44;67.58;93710.16;5153721;27;20175;-85
2022/01/09 09:26:52;;;;;;;6.63;3.80;;;;;;;10.57;67.05;93684.31;5154164;27;20175;-86
2022/01/09 09:29:20;;;;;;;5.90;3.67;;;;;;;10.25;65.30;93553.63;5153813;27;20178;-84
2022/01/09 09:31:50;;;;;;;7.13;3.97;;;;;;;10.92;64.72;93685.91;5153344;27;20175;-83
2022/01/09 09:34:18;;;;;;;5.60;3.97;;;;;;;11.29;64.60;93702.75;5134653;27;20718;-82
2022/01/09 09:36:48;;;;;;;6.93;4.40;;;;;;;10.36;64.87;93652.69;5154850;27;20266;-81
2022/01/09 09:39:13;;;;;;;6.50;4.00;;;;;;;10.67;64.90;93691.59;5134911;27;20195;-83
2022/01/09 09:41:41;;;;;;;9.27;5.07;;;;;;;10.74;64.05;93660.63;5145116;27;20183;-82
2022/01/09 09:44:10;;;;;;;7.67;4.20;;;;;;;10.81;64.07;93678.91;5135104;27;20168;-82
2022/01/09 09:46:36;;;;;;;9.17;5.07;;;;;;;10.46;64.68;93672.06;5117723;27;20180;-82
2022/01/09 09:49:02;;;;;;;6.83;4.03;;;;;;;10.47;65.35;93654.41;5134378;27;20538;-82
2022/01/09 09:51:30;;;;;;;4.93;3.77;;;;;;;10.56;64.28;93663.50;5153184;27;20174;-82
2022/01/09 09:53:59;;;;;;;6.57;4.33;;;;;;;10.50;64.94;93659.22;5150066;27;20215;-82
2022/01/09 09:56:28;;;;;;;76.03;11.20;;;;;;;10.37;64.79;93655.09;5152691;27;20175;-81
2022/01/09 09:58:58;;;;;;;6.63;4.27;;;;;;;10.18;65.56;93664.22;5152822;27;20297;-83
2022/01/09 10:01:38;;;;;;;5.23;3.50;;;;;;;10.05;65.35;93641.63;5152694;27;20183;-84
2022/01/09 10:04:06;;;;;;;6.57;4.40;;;;;;;9.76;66.85;93647.97;5153014;27;20171;-84
2022/01/09 10:06:45;;;;;;;4.53;3.17;;;;;;;9.70;67.15;93656.75;5133821;27;20187;-82
2022/01/09 10:09:16;;;;;;;5.80;3.60;;;;;;;9.40;68.80;93652.53;5134670;27;20179;-82
2022/01/09 10:11:53;;;;;;;6.50;3.70;;;;;;;9.07;69.71;93628.78;5129463;27;20219;-83
2022/01/09 10:14:29;;;;;;;6.47;4.07;;;;;;;9.20;69.34;93622.44;5137688;27;20313;-83
2022/01/09 10:17:06;;;;;;;7.57;4.00;;;;;;;9.26;69.54;93651.19;5133799;27;20686;-82
2022/01/09 10:19:48;;;;;;;7.43;4.30;;;;;;;9.24;69.75;93661.16;5143898;27;20191;-85
2022/01/09 10:22:40;;;;;;;6.37;3.60;;;;;;;8.96;71.35;93661.06;5132488;27;20188;-85
2022/01/09 10:25:45;;;;;;;5.07;3.60;;;;;;;8.97;70.93;93650.34;5124976;27;20191;-84
2022/01/09 10:28:20;;;;;;;6.13;3.60;;;;;;;8.88;71.26;93653.56;5152105;27;20640;-85
2022/01/09 10:30:54;;;;;;;6.33;3.53;;;;;;;8.39;71.80;93603.16;5153390;27;20198;-84
2022/01/09 10:33:24;;;;;;;6.80;3.47;;;;;;;8.63;72.06;93625.75;5150098;27;20223;-85
2022/01/09 10:35:50;;;;;;;7.23;3.97;;;;;;;8.40;73.15;93596.88;5152750;27;20263;-85
2022/01/09 10:38:24;;;;;;;9.00;4.83;;;;;;;8.65;73.00;93605.31;5152178;27;20279;-84
2022/01/09 10:41:03;;;;;;;9.87;4.80;;;;;;;8.81;72.16;93600.41;5152448;27;20171;-84
2022/01/09 10:43:40;;;;;;;10.23;5.00;;;;;;;8.93;72.27;93614.28;5152724;27;20944;-85
2022/01/09 10:46:09;;;;;;;7.97;4.70;;;;;;;8.85;73.20;93599.69;5152118;27;20633;-82
2022/01/09 10:48:43;;;;;;;6.87;4.50;;;;;;;9.04;72.47;93605.59;5125753;27;20191;-81
2022/01/09 10:51:11;;;;;;;8.50;5.07;;;;;;;8.96;72.22;93605.97;5155187;27;20172;-81
2022/01/09 10:53:45;;;;;;;7.37;4.33;;;;;;;8.60;72.96;93596.53;5156430;27;20172;-82
2022/01/09 10:56:18;;;;;;;7.40;4.87;;;;;;;8.53;73.73;93609.78;5156234;27;20203;-82
2022/01/09 10:59:03;;;;;;;7.13;4.40;;;;;;;8.25;74.65;93613.03;5137603;27;20184;-81
2022/01/09 11:01:29;;;;;;;7.60;4.40;;;;;;;8.33;74.66;93617.97;5155850;27;20167;-82
2022/01/09 11:04:00;;;;;;;6.60;4.20;;;;;;;8.33;74.73;93599.63;5155358;27;20191;-83
2022/01/09 11:06:31;;;;;;;7.10;3.97;;;;;;;8.40;74.46;93598.69;5152049;27;20156;-83
2022/01/09 11:09:00;;;;;;;6.50;4.17;;;;;;;8.32;73.97;93569.19;5156015;27;20216;-83
2022/01/09 11:11:30;;;;;;;7.40;4.17;;;;;;;8.52;73.67;93581.16;5137408;27;20186;-83
2022/01/09 11:14:04;;;;;;;7.03;4.13;;;;;;;8.87;73.00;93596.84;5153796;27;20167;-83
2022/01/09 11:16:33;;;;;;;8.37;4.67;;;;;;;9.00;72.25;93596.56;5156113;27;20160;-83
2022/01/09 11:19:19;;;;;;;8.03;4.30;;;;;;;8.96;72.07;93577.09;5151699;27;20587;-84
2022/01/09 11:21:55;;;;;;;8.10;4.80;;;;;;;8.91;71.60;93563.84;5154929;27;20167;-83
2022/01/09 11:24:58;;;;;;;8.07;4.70;;;;;;;9.14;71.71;93592.69;5154621;27;20179;-83
2022/01/09 11:27:45;;;;;;;7.33;4.53;;;;;;;9.26;71.40;93590.00;5131287;27;20282;-81
2022/01/09 11:30:17;;;;;;;7.97;4.20;;;;;;;9.28;71.13;93587.94;5156238;27;20549;-82